Racecast

Shahil Madison

Sacramento Speed Factory (CA) · 2 · STS · Compare head to head

Athlete rating
Races 53
Seasons 2 2013 — 2014
Speed rating — all races

Track & Field

TF speed rating

2014 TF

Sacramento Speed Factory (CA) · Grade 2

Date Meet Event Result Place Rating Difficulty PR/SR Flags
2014-05-31 Pacific Association Championships (PAC) 200m 31.56 6th · 3rd on team -0.024 ★PR SR
2014-05-31 Pacific Association Championships (PAC) 100m 15.99 19th · 4th on team -0.024
2014-05-31 Pacific Association Championships (PAC) 200m 31.63 7th · 4th on team -0.024
2014-05-18 3M Invitational 100m 15.84 5th · 5th on team -0.028
2014-05-18 3M Invitational 200m 33.85 2nd · 2nd on team -0.028
2014-05-18 3M Invitational 100m 15.94 6th · 6th on team -0.028
2014-05-03 Hercules Running Rebels/Top Pacers Inv. 200m 32.58 3rd · 3rd on team -0.038 PR SR
2014-05-03 Hercules Running Rebels/Top Pacers Inv. 400m 1:16.78 3rd · 3rd on team -0.038 ★PR SR
2014-05-03 Hercules Running Rebels/Top Pacers Inv. 100m 16 6th · 6th on team -0.038
2014-05-03 Hercules Running Rebels/Top Pacers Inv. 100m 15.74 4th · 4th on team -0.038
2014-04-26 Revolution Express TC 100m 15.99 5th · 4th on team -0.024
2014-04-26 Revolution Express TC 200m 33.12 4th · 3rd on team -0.024
2014-04-05 Sacramento Speed Showcase 100m 15.02 3rd · 2nd on team -0.033 ★PR SR
2014-04-05 Sacramento Speed Showcase 200m 33.02 2nd · 2nd on team -0.033 SR
2014-04-05 Sacramento Speed Showcase 400m 1:19.85 3rd · 2nd on team -0.033
2014-03-22 RPM 100m 16.54 14th · 5th on team -0.012 SR
2014-03-22 RPM 400m 1:19.74 3rd · 2nd on team -0.012 PR SR

2013 TF

Sacramento Speed Factory (CA) · Grade 1

Date Meet Event Result Place Rating Difficulty PR/SR Flags
2013-07-06 Region 14 Junior Olympics T&F (2-day) 200m 32.76 5th · 1st on team -0.035 PR SR
2013-07-06 Region 14 Junior Olympics T&F (2-day) 100m 17.23 15th · 4th on team -0.035
2013-07-06 Region 14 Junior Olympics T&F (2-day) 100m 17.14 13th · 2nd on team -0.035
2013-06-21 Pacific Association Junior Olympics (3-day) 200m 34.85 11th · 2nd on team -0.034
2013-06-21 Pacific Association Junior Olympics (3-day) 100m 16.77 15th · 2nd on team -0.034
2013-06-21 Pacific Association Junior Olympics (3-day) 100m 16.36 7th · 1st on team -0.034 PR SR
2013-06-21 Pacific Association Junior Olympics (3-day) 200m 35.7 17th · 4th on team -0.034
2013-06-08 Pacific Association Youth Championship (PAC) - 2-day meet 200m 34.98 11th · 2nd on team -0.024
2013-06-08 Pacific Association Youth Championship (PAC) - 2-day meet 200m 34.81 10th · 1st on team -0.024
2013-06-08 Pacific Association Youth Championship (PAC) - 2-day meet 400m 2:08.83 6th · 2nd on team -0.024
2013-06-08 Pacific Association Youth Championship (PAC) - 2-day meet 100m 16.39 10th · 1st on team -0.024 PR SR
2013-06-08 Pacific Association Youth Championship (PAC) - 2-day meet 100m 16.98 17th · 4th on team -0.024
2013-05-25 Central Valley Roadrunners (2-day meet) 100m 16.47 10th · 1st on team -0.026 PR SR
2013-05-25 Central Valley Roadrunners (2-day meet) 100m 16.84 13th · 4th on team -0.026
2013-05-25 Central Valley Roadrunners (2-day meet) 400m 1:24.45 7th · 1st on team -0.026 PR SR
2013-05-25 Central Valley Roadrunners (2-day meet) 200m 34.14 11th · 1st on team -0.026 PR SR
2013-05-25 Central Valley Roadrunners (2-day meet) 200m 35.1 15th · 3rd on team -0.026
2013-05-11 Classic Track Club Relays 200m 34.32 2nd · 1st on team -0.011 PR SR
2013-05-11 Classic Track Club Relays 100m 17.03 5th · 1st on team -0.011
2013-05-04 Hercules / Running Rebels (2-day) 200m 37.88 29th · 3rd on team -0.038
2013-05-04 Hercules / Running Rebels (2-day) 100m 16.9 28th · 2nd on team -0.038 PR SR
2013-05-04 Hercules / Running Rebels (2-day) 400m 1:31.88 17th · 4th on team -0.038
2013-04-27 Revolution Express Track Club 400m 1:31.41 17th · 5th on team -0.024
2013-04-27 Revolution Express Track Club 100m 17.56 18th · 4th on team -0.024
2013-04-27 Revolution Express Track Club 200m 37.61 11th · 2nd on team -0.024
2013-04-20 Shor / Sheppard Classic 200m 35.76 13th · 2nd on team -0.022 PR SR
2013-04-20 Shor / Sheppard Classic 100m 17.2 13th · 2nd on team -0.022 PR SR
2013-04-06 Sacramento Speed Showcase 200m 40.15 19th · 3rd on team -0.031 PR SR
2013-04-06 Sacramento Speed Showcase 100m 18.49 22nd · 4th on team -0.031
2013-04-06 Sacramento Speed Showcase 400m 1:26.05 14th · 2nd on team -0.031 PR SR
2013-03-30 Stockton Saints 100m 18.05 22nd · 3rd on team -0.016 PR SR
2013-03-30 Stockton Saints 400m 1:37.37 26th · 2nd on team -0.016 PR SR
2013-03-09 RETC home practice meet lj 5'10.5" -0.024
2013-03-09 RETC home practice meet 400m 1:49.14 6th · 4th on team -0.024 PR SR
2013-03-09 RETC home practice meet 100m 18.84 6th · 4th on team -0.024 PR SR
2013-03-09 RETC home practice meet 200m 42.44 11th · 6th on team -0.024 PR SR